Time;durP1;ratioP1;P1;durP2;ratioP2;P2;SDS_P1;SDS_P2;PMS_P1;PMS_P2;Temp;Humidity;BMP_temperature;BMP_pressure;BME280_temperature;BME280_humidity;BME280_pressure;Samples;Min_cycle;Max_cycle;Signal;HPM_P1;HPM_P2
2022/10/14 00:01:52;;;;;;;17.97;12.43;;;14.30;92.90;;;;;;5085891;28;20176;-75
2022/10/14 00:04:18;;;;;;;16.30;11.93;;;14.40;94.00;;;;;;5084349;28;20220;-73
2022/10/14 00:06:43;;;;;;;15.60;12.10;;;14.40;91.90;;;;;;5079766;28;20845;-73
2022/10/14 00:09:09;;;;;;;18.63;12.03;;;14.30;91.60;;;;;;5078571;28;20206;-74
2022/10/14 00:11:36;;;;;;;18.80;11.90;;;14.30;91.00;;;;;;5082130;28;20196;-74
2022/10/14 00:14:09;;;;;;;27.03;12.20;;;14.30;86.30;;;;;;5084109;28;20700;-73
2022/10/14 00:16:38;;;;;;;19.30;11.47;;;14.70;89.50;;;;;;5076312;28;20416;-77
2022/10/14 00:19:05;;;;;;;25.73;11.30;;;14.30;83.30;;;;;;5099108;28;20420;-74
2022/10/14 00:21:31;;;;;;;16.33;11.40;;;14.30;86.10;;;;;;5086663;28;20952;-73
2022/10/14 00:23:57;;;;;;;16.43;11.10;;;14.30;82.60;;;;;;5077447;28;20731;-73
2022/10/14 00:26:23;;;;;;;16.27;10.33;;;14.30;84.20;;;;;;5083899;28;20503;-74
2022/10/14 00:28:50;;;;;;;20.27;11.07;;;14.30;83.30;;;;;;5076080;28;20192;-73
2022/10/14 00:31:16;;;;;;;22.93;10.93;;;14.30;80.10;;;;;;5082344;28;20847;-73
2022/10/14 00:33:42;;;;;;;21.70;11.30;;;14.30;76.50;;;;;;5084795;28;20502;-74
2022/10/14 00:36:10;;;;;;;22.30;11.93;;;14.30;77.70;;;;;;5080298;28;20847;-73
2022/10/14 00:38:36;;;;;;;18.43;11.37;;;14.30;86.20;;;;;;5085060;28;20180;-73
2022/10/14 00:41:02;;;;;;;17.87;11.00;;;14.30;83.40;;;;;;5087985;28;20517;-73
2022/10/14 00:43:49;;;;;;;19.83;12.00;;;14.30;84.70;;;;;;5077867;28;20458;-73
2022/10/14 00:46:14;;;;;;;20.43;11.23;;;14.40;88.30;;;;;;5088189;28;20995;-73
2022/10/14 00:48:40;;;;;;;18.10;11.10;;;14.40;82.40;;;;;;5079991;28;20445;-73
2022/10/14 00:51:05;;;;;;;15.63;10.50;;;14.40;86.00;;;;;;5088429;28;20211;-74
2022/10/14 00:53:31;;;;;;;16.00;10.83;;;14.40;86.30;;;;;;5087433;28;20176;-73
2022/10/14 00:55:57;;;;;;;21.40;12.30;;;14.40;82.70;;;;;;5081764;28;20264;-74
2022/10/14 00:58:23;;;;;;;14.73;10.50;;;14.40;82.40;;;;;;5085148;28;20877;-73
2022/10/14 01:00:48;;;;;;;18.90;11.30;;;14.40;85.50;;;;;;5081442;28;20515;-75
2022/10/14 01:03:22;;;;;;;17.60;11.07;;;14.40;82.00;;;;;;5074046;28;20729;-74
2022/10/14 01:06:10;;;;;;;18.60;11.57;;;14.40;81.60;;;;;;5090843;28;20483;-72
2022/10/14 01:08:53;;;;;;;21.73;12.93;;;14.40;85.20;;;;;;5091046;28;20434;-74
2022/10/14 01:11:39;;;;;;;20.50;12.10;;;14.40;80.40;;;;;;5084511;28;20468;-75
2022/10/14 01:14:11;;;;;;;18.37;12.43;;;14.30;81.80;;;;;;5079378;28;20433;-74
2022/10/14 01:16:45;;;;;;;22.33;12.67;;;14.20;86.80;;;;;;5089243;28;20420;-73
2022/10/14 01:19:25;;;;;;;17.20;11.87;;;14.20;90.00;;;;;;5088251;28;20557;-74
2022/10/14 01:22:26;;;;;;;20.40;12.50;;;14.20;90.30;;;;;;5087862;28;20433;-73
2022/10/14 01:25:02;;;;;;;18.63;12.63;;;14.20;91.10;;;;;;5078418;28;20465;-73
2022/10/14 01:28:02;;;;;;;20.07;12.77;;;14.20;89.60;;;;;;5077911;28;20951;-73
2022/10/14 01:30:45;;;;;;;20.60;12.60;;;14.30;89.90;;;;;;5074533;28;20573;-74
2022/10/14 01:33:23;;;;;;;23.10;13.27;;;14.30;88.40;;;;;;5073440;28;20476;-71
2022/10/14 01:36:19;;;;;;;18.43;13.37;;;14.30;88.00;;;;;;5084581;28;20585;-73
2022/10/14 01:39:13;;;;;;;22.57;13.50;;;14.30;87.80;;;;;;5082564;28;20422;-72
2022/10/14 01:41:45;;;;;;;19.70;12.47;;;14.30;84.80;;;;;;5079520;28;20430;-73
2022/10/14 01:44:13;;;;;;;18.00;12.77;;;14.40;85.10;;;;;;5088159;28;20436;-74
2022/10/14 01:46:42;;;;;;;24.43;13.37;;;14.40;87.50;;;;;;5083228;28;20422;-74
2022/10/14 01:49:13;;;;;;;24.13;13.30;;;14.40;84.30;;;;;;5088302;28;20764;-74
2022/10/14 01:51:45;;;;;;;20.27;12.40;;;14.40;83.20;;;;;;5072040;28;20451;-74
2022/10/14 01:54:16;;;;;;;20.80;11.77;;;14.40;85.20;;;;;;5087447;28;20426;-72
2022/10/14 01:56:45;;;;;;;25.00;12.67;;;14.70;81.00;;;;;;5081864;28;20838;-73
2022/10/14 01:59:13;;;;;;;19.23;12.07;;;14.30;80.10;;;;;;5080648;28;20449;-73
2022/10/14 02:01:39;;;;;;;19.50;12.23;;;14.40;78.90;;;;;;5080314;28;20446;-72
2022/10/14 02:04:14;;;;;;;18.93;11.70;;;14.40;71.40;;;;;;5088933;28;20433;-74
2022/10/14 02:06:44;;;;;;;19.30;11.90;;;14.30;68.00;;;;;;5080749;28;20256;-73
2022/10/14 02:09:21;;;;;;;17.97;12.10;;;14.30;67.00;;;;;;5079908;28;20477;-74
2022/10/14 02:12:08;;;;;;;18.50;11.03;;;14.40;67.70;;;;;;5075390;28;20495;-72
2022/10/14 02:15:08;;;;;;;21.57;11.90;;;14.40;64.40;;;;;;5082163;28;20967;-73
2022/10/14 02:17:45;;;;;;;17.80;11.37;;;14.50;64.00;;;;;;5085636;28;20428;-76
2022/10/14 02:20:26;;;;;;;18.13;11.90;;;14.50;64.80;;;;;;5078819;28;20491;-72
2022/10/14 02:23:03;;;;;;;27.00;13.70;;;14.50;62.40;;;;;;5084705;28;20516;-74
2022/10/14 02:25:36;;;;;;;22.40;13.13;;;14.50;66.30;;;;;;5086574;28;20419;-72
2022/10/14 02:28:06;;;;;;;22.80;12.90;;;14.50;70.20;;;;;;5075479;28;20449;-74
2022/10/14 02:30:36;;;;;;;22.23;13.33;;;14.50;73.00;;;;;;5082357;28;20477;-74
2022/10/14 02:33:03;;;;;;;19.93;13.83;;;14.50;79.00;;;;;;5071686;28;20403;-73
2022/10/14 02:35:30;;;;;;;26.77;15.10;;;14.40;80.00;;;;;;5084555;28;20447;-74
2022/10/14 02:37:57;;;;;;;26.97;14.90;;;14.40;82.70;;;;;;5085997;28;21020;-73
2022/10/14 02:40:32;;;;;;;26.90;14.70;;;14.40;85.50;;;;;;5087292;28;20442;-71
2022/10/14 02:42:57;;;;;;;27.87;15.60;;;14.40;86.40;;;;;;5084270;28;20453;-74
2022/10/14 02:45:26;;;;;;;25.70;15.40;;;14.40;88.90;;;;;;5091070;28;20436;-74
2022/10/14 02:47:51;;;;;;;30.27;16.30;;;14.40;90.30;;;;;;5087566;28;20180;-73
2022/10/14 02:50:18;;;;;;;29.70;15.77;;;14.40;90.60;;;;;;5083772;28;20888;-74
2022/10/14 02:52:43;;;;;;;29.57;16.00;;;14.30;91.40;;;;;;5079739;28;20994;-74
2022/10/14 02:55:09;;;;;;;29.77;15.80;;;14.30;92.80;;;;;;5091186;28;20429;-75
2022/10/14 02:57:35;;;;;;;30.40;16.73;;;14.30;94.30;;;;;;5079516;28;20526;-74
2022/10/14 03:00:01;;;;;;;28.00;16.50;;;14.60;94.00;;;;;;5091651;28;20714;-73
2022/10/14 03:02:26;;;;;;;27.70;15.77;;;14.30;93.90;;;;;;5079377;28;20187;-74
2022/10/14 03:04:52;;;;;;;23.80;15.70;;;14.40;95.00;;;;;;5090668;28;20183;-72
2022/10/14 03:07:17;;;;;;;30.40;16.97;;;14.40;93.60;;;;;;5080449;28;20453;-73
2022/10/14 03:09:43;;;;;;;27.23;16.63;;;14.50;93.50;;;;;;5089170;28;20214;-74
2022/10/14 03:12:08;;;;;;;29.40;15.20;;;14.50;93.50;;;;;;5087183;28;20187;-73
2022/10/14 03:14:34;;;;;;;33.33;15.47;;;14.50;92.50;;;;;;5090463;28;20178;-73
2022/10/14 03:16:59;;;;;;;32.50;17.07;;;14.60;92.30;;;;;;5093301;28;20255;-72
2022/10/14 03:19:25;;;;;;;29.63;17.00;;;14.60;91.70;;;;;;5086105;28;20204;-72
2022/10/14 03:21:50;;;;;;;28.73;16.43;;;14.60;88.60;;;;;;5075364;28;20258;-72
2022/10/14 03:24:16;;;;;;;29.30;15.83;;;14.70;88.30;;;;;;5090930;28;20662;-73
2022/10/14 03:26:41;;;;;;;25.90;15.83;;;14.70;90.20;;;;;;5075761;28;20435;-76
2022/10/14 03:29:07;;;;;;;39.60;15.57;;;14.60;87.40;;;;;;5078921;28;20191;-73
2022/10/14 03:31:32;;;;;;;35.60;16.43;;;14.60;88.40;;;;;;5083998;28;20311;-74
2022/10/14 03:33:58;;;;;;;30.00;16.43;;;14.60;90.00;;;;;;5088652;28;20680;-73
2022/10/14 03:36:24;;;;;;;33.50;16.20;;;14.60;89.00;;;;;;5083392;28;20192;-74
2022/10/14 03:38:49;;;;;;;32.63;17.10;;;14.60;91.40;;;;;;5082964;28;20195;-73
2022/10/14 03:41:15;;;;;;;24.90;16.00;;;14.60;90.90;;;;;;5083521;28;20310;-73
2022/10/14 03:43:40;;;;;;;27.17;16.13;;;14.60;90.30;;;;;;5071728;28;20180;-76
2022/10/14 03:46:06;;;;;;;26.93;16.27;;;14.60;88.60;;;;;;5077501;28;20651;-73
2022/10/14 03:48:31;;;;;;;26.17;14.90;;;14.60;90.10;;;;;;5090603;28;20707;-74
2022/10/14 03:50:57;;;;;;;26.33;15.73;;;14.70;89.10;;;;;;5080955;28;20689;-74
2022/10/14 03:53:22;;;;;;;28.80;15.43;;;14.60;87.70;;;;;;5087094;28;20168;-72
2022/10/14 03:55:48;;;;;;;22.60;14.87;;;15.00;88.50;;;;;;5085899;28;20643;-73
2022/10/14 03:58:13;;;;;;;32.43;16.07;;;14.60;87.80;;;;;;5087243;28;20176;-73
2022/10/14 04:00:39;;;;;;;29.57;16.13;;;14.60;86.90;;;;;;5077694;28;20195;-72
2022/10/14 04:03:04;;;;;;;21.47;15.43;;;14.60;89.20;;;;;;5083670;28;20180;-73
2022/10/14 04:05:32;;;;;;;23.10;15.70;;;14.60;87.20;;;;;;5083670;28;20229;-73
2022/10/14 04:07:59;;;;;;;24.00;14.90;;;14.60;87.00;;;;;;5084264;28;20229;-74
2022/10/14 04:10:25;;;;;;;26.20;15.00;;;14.60;84.70;;;;;;5084046;28;20462;-73
2022/10/14 04:12:52;;;;;;;26.23;14.60;;;14.70;85.50;;;;;;5087806;28;20841;-74
2022/10/14 04:15:17;;;;;;;26.23;15.10;;;14.60;83.60;;;;;;5086899;28;20591;-74
2022/10/14 04:17:43;;;;;;;21.37;13.70;;;14.70;86.20;;;;;;5087431;28;20504;-74
2022/10/14 04:20:09;;;;;;;22.47;14.57;;;14.60;78.00;;;;;;5087939;28;20195;-74
2022/10/14 04:22:34;;;;;;;23.47;13.10;;;14.60;80.80;;;;;;5084647;28;20194;-73
2022/10/14 04:25:00;;;;;;;23.90;13.93;;;14.60;79.30;;;;;;5090688;28;20179;-72
2022/10/14 04:27:25;;;;;;;36.03;20.80;;;14.60;79.60;;;;;;5080135;28;20176;-72
2022/10/14 04:29:51;;;;;;;37.03;23.00;;;14.60;80.30;;;;;;5088143;28;20221;-74
2022/10/14 04:32:17;;;;;;;29.00;18.70;;;14.60;80.70;;;;;;5083610;28;20233;-74
2022/10/14 04:34:43;;;;;;;23.50;14.07;;;14.50;84.40;;;;;;5088202;28;20196;-75
2022/10/14 04:37:09;;;;;;;27.17;14.53;;;14.40;82.60;;;;;;5077150;28;20450;-74
2022/10/14 04:39:34;;;;;;;33.83;16.07;;;14.40;81.70;;;;;;5072690;28;20651;-74
2022/10/14 04:42:00;;;;;;;19.80;14.57;;;14.70;86.10;;;;;;5082826;28;20224;-74
2022/10/14 04:44:25;;;;;;;23.50;14.63;;;14.30;81.80;;;;;;5084149;28;20254;-73
2022/10/14 04:46:51;;;;;;;22.43;13.50;;;14.30;83.80;;;;;;5083140;28;20180;-74
2022/10/14 04:49:16;;;;;;;24.70;13.20;;;14.30;83.60;;;;;;5095033;28;20204;-73
2022/10/14 04:51:42;;;;;;;22.33;14.43;;;14.30;83.90;;;;;;5071524;28;20212;-72
2022/10/14 04:54:09;;;;;;;24.53;12.40;;;14.30;82.40;;;;;;5074481;28;20823;-73
2022/10/14 04:56:34;;;;;;;24.90;12.80;;;14.20;82.50;;;;;;5081016;28;20176;-73
2022/10/14 04:59:00;;;;;;;22.73;13.77;;;14.30;82.60;;;;;;5081113;28;20437;-74
2022/10/14 05:01:26;;;;;;;25.83;13.87;;;14.30;84.00;;;;;;5083241;28;20199;-73
2022/10/14 05:03:51;;;;;;;26.83;14.30;;;14.30;80.30;;;;;;5080237;28;20180;-74
2022/10/14 05:06:17;;;;;;;22.30;12.23;;;14.30;78.00;;;;;;5088701;28;20201;-74
2022/10/14 05:08:43;;;;;;;21.33;13.47;;;14.30;76.40;;;;;;5080447;28;20184;-73
2022/10/14 05:11:09;;;;;;;24.57;14.40;;;14.30;77.70;;;;;;5086075;28;20214;-74
2022/10/14 05:13:35;;;;;;;22.50;14.10;;;14.30;78.60;;;;;;5091704;28;20182;-76
2022/10/14 05:16:01;;;;;;;28.10;16.23;;;14.40;77.10;;;;;;5086760;28;20473;-73
2022/10/14 05:18:27;;;;;;;22.03;15.23;;;14.40;76.20;;;;;;5081586;28;20198;-73
2022/10/14 05:20:52;;;;;;;19.87;13.50;;;14.50;75.70;;;;;;5086691;28;20898;-73
2022/10/14 05:23:18;;;;;;;19.20;12.77;;;14.50;72.70;;;;;;5089185;28;20198;-73
2022/10/14 05:25:43;;;;;;;19.47;12.90;;;14.50;71.70;;;;;;5074350;28;20530;-74
2022/10/14 05:28:09;;;;;;;19.40;12.23;;;14.60;67.40;;;;;;5088741;28;20168;-73
2022/10/14 05:30:34;;;;;;;20.20;11.17;;;14.60;65.20;;;;;;5079202;28;20269;-74
2022/10/14 05:33:00;;;;;;;18.70;11.50;;;14.60;63.80;;;;;;5088935;28;20186;-74
2022/10/14 05:35:26;;;;;;;16.73;11.20;;;14.60;60.80;;;;;;5080893;28;20274;-73
2022/10/14 05:37:56;;;;;;;14.93;10.63;;;14.60;67.10;;;;;;5087579;28;20528;-72
2022/10/14 05:40:22;;;;;;;16.10;10.60;;;14.60;63.00;;;;;;5085092;28;20504;-71
2022/10/14 05:42:48;;;;;;;16.70;10.53;;;14.60;65.50;;;;;;5084146;28;20516;-72
2022/10/14 05:45:13;;;;;;;20.30;10.70;;;14.60;64.40;;;;;;5089409;28;20999;-74
2022/10/14 05:47:41;;;;;;;16.33;10.60;;;14.60;54.90;;;;;;5097760;28;20236;-75
2022/10/14 05:50:07;;;;;;;22.90;10.20;;;14.60;57.10;;;;;;5094232;28;20214;-74
2022/10/14 05:52:34;;;;;;;17.63;10.33;;;14.60;56.30;;;;;;5091960;28;20412;-75
2022/10/14 05:54:59;;;;;;;18.83;9.27;;;14.60;60.70;;;;;;5110696;28;20159;-75
2022/10/14 05:57:26;;;;;;;18.50;9.63;;;14.70;58.10;;;;;;5103905;28;20418;-79
2022/10/14 05:59:52;;;;;;;18.87;9.80;;;14.70;56.10;;;;;;5089021;28;20192;-81
2022/10/14 06:02:18;;;;;;;11.50;8.43;;;14.80;47.10;;;;;;5081159;28;20491;-73
2022/10/14 06:04:43;;;;;;;17.90;9.53;;;15.00;42.20;;;;;;5088953;28;20372;-75
2022/10/14 06:07:09;;;;;;;17.50;9.33;;;15.00;42.20;;;;;;5086066;28;20261;-73
2022/10/14 06:09:36;;;;;;;16.20;9.20;;;14.80;39.80;;;;;;5090930;28;20180;-76
2022/10/14 06:12:02;;;;;;;15.73;10.07;;;14.90;42.30;;;;;;5083676;28;20191;-75
2022/10/14 06:14:27;;;;;;;14.87;9.63;;;14.80;42.00;;;;;;5093942;28;20410;-75
2022/10/14 06:16:53;;;;;;;13.93;10.53;;;14.80;42.20;;;;;;5081401;28;20907;-77
2022/10/14 06:19:19;;;;;;;17.33;9.50;;;14.80;42.10;;;;;;5088169;28;20181;-76
2022/10/14 06:21:44;;;;;;;17.97;10.17;;;14.90;42.20;;;;;;5087076;28;20188;-75
2022/10/14 06:24:10;;;;;;;13.60;9.93;;;14.90;42.10;;;;;;5082580;28;20199;-75
2022/10/14 06:26:36;;;;;;;23.70;10.13;;;14.90;42.00;;;;;;5081374;28;20184;-74
2022/10/14 06:29:01;;;;;;;13.23;9.70;;;15.30;42.50;;;;;;5084908;28;20192;-74
2022/10/14 06:31:27;;;;;;;17.53;10.23;;;14.90;42.00;;;;;;5081205;28;20228;-74
2022/10/14 06:33:52;;;;;;;16.33;10.70;;;15.00;42.00;;;;;;5082556;28;20561;-75
2022/10/14 06:36:18;;;;;;;15.53;10.50;;;15.00;42.00;;;;;;5086598;28;20507;-74
2022/10/14 06:38:43;;;;;;;14.80;10.10;;;15.10;42.10;;;;;;5087490;28;20176;-75
2022/10/14 06:41:09;;;;;;;15.00;10.07;;;15.10;42.00;;;;;;5092573;28;20573;-75
2022/10/14 06:43:34;;;;;;;20.40;10.20;;;15.20;42.10;;;;;;5088628;28;20631;-75
2022/10/14 06:46:02;;;;;;;13.70;9.60;;;15.30;42.20;;;;;;5093994;28;20633;-74
2022/10/14 06:48:27;;;;;;;18.13;10.30;;;15.30;40.00;;;;;;5088641;28;20173;-75
2022/10/14 06:50:53;;;;;;;15.83;10.60;;;15.40;34.40;;;;;;5091864;28;20529;-76
2022/10/14 06:53:19;;;;;;;14.63;9.47;;;15.40;39.40;;;;;;5088786;28;20171;-74
2022/10/14 06:55:44;;;;;;;14.93;9.03;;;15.40;42.20;;;;;;5084811;28;20183;-74
2022/10/14 06:58:10;;;;;;;11.97;9.47;;;15.40;31.60;;;;;;5083101;28;20550;-76
2022/10/14 07:00:36;;;;;;;13.07;9.20;;;15.40;38.70;;;;;;5086037;28;20327;-74
2022/10/14 07:03:02;;;;;;;13.50;9.63;;;15.40;35.20;;;;;;5090344;28;20260;-76
2022/10/14 07:05:28;;;;;;;14.10;9.47;;;15.40;32.30;;;;;;5078126;28;20666;-75
2022/10/14 07:07:55;;;;;;;15.73;9.83;;;15.40;34.00;;;;;;5078610;28;20427;-75
2022/10/14 07:10:21;;;;;;;17.80;9.40;;;15.50;36.20;;;;;;5092276;28;20278;-75
2022/10/14 07:12:46;;;;;;;14.87;9.90;;;15.70;30.30;;;;;;5091536;28;20489;-74
2022/10/14 07:15:12;;;;;;;15.13;8.37;;;15.80;27.40;;;;;;5092292;28;20193;-74
2022/10/14 07:17:38;;;;;;;12.90;8.63;;;15.90;21.10;;;;;;5100200;28;20176;-74
2022/10/14 07:20:04;;;;;;;11.37;8.53;;;16.10;15.20;;;;;;5112100;28;20251;-73
2022/10/14 07:22:29;;;;;;;15.10;9.00;;;16.10;17.60;;;;;;5112160;28;20216;-74
2022/10/14 07:24:55;;;;;;;16.67;8.83;;;16.10;14.50;;;;;;5112688;28;20173;-76
2022/10/14 07:27:20;;;;;;;11.93;7.70;;;16.10;10.40;;;;;;5105283;28;20249;-75
2022/10/14 07:29:46;;;;;;;11.70;8.00;;;16.10;12.70;;;;;;5091105;28;20204;-75
2022/10/14 07:32:11;;;;;;;13.10;7.13;;;16.10;12.60;;;;;;5091907;28;20167;-74
2022/10/14 07:34:37;;;;;;;16.57;8.10;;;16.20;9.20;;;;;;5091702;28;20271;-74
2022/10/14 07:37:03;;;;;;;16.40;7.27;;;16.20;7.20;;;;;;5091346;28;20620;-74
2022/10/14 07:39:28;;;;;;;13.60;7.33;;;16.20;10.10;;;;;;5091884;28;20194;-74
2022/10/14 07:41:54;;;;;;;8.90;7.50;;;16.30;10.60;;;;;;5091461;28;20437;-75
2022/10/14 07:44:20;;;;;;;11.80;8.30;;;16.40;10.60;;;;;;5091791;28;20207;-74
2022/10/14 07:46:46;;;;;;;12.50;8.20;;;16.50;2.20;;;;;;5099828;28;20163;-75
2022/10/14 07:49:19;;;;;;;9.90;8.00;;;16.60;1.00;;;;;;5105537;28;20212;-74
2022/10/14 07:51:46;;;;;;;11.10;7.97;;;16.70;3.60;;;;;;5111996;28;20456;-75
2022/10/14 07:54:14;;;;;;;12.73;8.20;;;16.90;1.00;;;;;;5111884;28;20417;-74
2022/10/14 07:56:41;;;;;;;11.40;7.40;;;16.90;1.00;;;;;;5107320;28;20475;-74
2022/10/14 07:59:08;;;;;;;14.23;7.87;;;16.90;1.00;;;;;;5091269;28;21113;-73
2022/10/14 08:01:34;;;;;;;14.23;7.57;;;16.90;1.00;;;;;;5091360;28;20792;-75
2022/10/14 08:03:59;;;;;;;13.83;8.53;;;16.90;1.00;;;;;;5091722;28;20405;-74
2022/10/14 08:06:25;;;;;;;14.07;8.37;;;16.90;1.00;;;;;;5091189;28;20916;-74
2022/10/14 08:08:51;;;;;;;10.53;7.80;;;17.00;1.00;;;;;;5090968;28;20217;-74
2022/10/14 08:11:22;;;;;;;15.33;8.70;;;17.10;1.00;;;;;;5090867;28;20203;-73
2022/10/14 08:13:48;;;;;;;10.47;8.77;;;17.10;1.00;;;;;;5090833;28;20414;-74
2022/10/14 08:16:23;;;;;;;12.30;8.53;;;17.10;1.00;;;;;;5090717;28;20409;-74
2022/10/14 08:18:49;;;;;;;15.43;8.37;;;17.10;1.00;;;;;;5090838;28;20397;-74
2022/10/14 08:21:16;;;;;;;11.30;8.90;;;17.10;1.00;;;;;;5090497;28;20502;-74
2022/10/14 08:23:42;;;;;;;12.63;8.03;;;17.00;1.00;;;;;;5090255;28;20958;-74
2022/10/14 08:26:25;;;;;;;11.07;8.13;;;16.80;1.00;;;;;;5090668;28;20498;-74
2022/10/14 08:28:51;;;;;;;14.40;8.20;;;16.80;1.00;;;;;;5090825;28;20812;-76
2022/10/14 08:31:17;;;;;;;15.30;9.10;;;16.80;1.00;;;;;;5090512;28;20876;-74
2022/10/14 08:33:43;;;;;;;11.80;7.73;;;16.70;1.00;;;;;;5090970;28;20656;-76
2022/10/14 08:36:09;;;;;;;16.10;8.80;;;16.70;1.00;;;;;;5090136;28;20406;-74
2022/10/14 08:38:35;;;;;;;11.47;7.93;;;16.70;1.00;;;;;;5090964;28;20168;-74
2022/10/14 08:41:39;;;;;;;12.63;8.73;;;16.70;1.00;;;;;;5090389;28;20436;-76
2022/10/14 08:44:12;;;;;;;9.63;7.70;;;16.70;1.00;;;;;;5090623;28;20610;-74
2022/10/14 08:46:39;;;;;;;12.90;7.27;;;16.70;1.00;;;;;;5098469;28;20628;-73
2022/10/14 08:49:24;;;;;;;12.83;8.30;;;16.70;1.00;;;;;;5103120;28;20409;-74
2022/10/14 08:52:04;;;;;;;12.27;7.80;;;16.60;1.00;;;;;;5110908;28;20991;-74
2022/10/14 08:54:35;;;;;;;16.10;8.20;;;16.60;1.00;;;;;;5110941;28;20389;-72
2022/10/14 08:57:02;;;;;;;13.03;7.30;;;16.60;1.00;;;;;;5090229;28;20406;-72
2022/10/14 08:59:29;;;;;;;13.10;8.00;;;16.60;1.00;;;;;;5090159;28;20406;-74
2022/10/14 09:02:02;;;;;;;15.03;8.73;;;16.60;1.00;;;;;;5090318;28;20448;-73
2022/10/14 09:04:29;;;;;;;11.50;8.13;;;16.70;1.00;;;;;;5090185;28;20581;-74
2022/10/14 09:06:56;;;;;;;14.70;7.63;;;16.80;1.00;;;;;;5089897;28;20809;-74
2022/10/14 09:09:29;;;;;;;10.47;7.93;;;16.80;1.00;;;;;;5090552;28;20490;-72
2022/10/14 09:12:01;;;;;;;10.40;7.73;;;17.00;1.00;;;;;;5089859;28;20414;-75
2022/10/14 09:14:33;;;;;;;11.93;7.17;;;17.00;1.00;;;;;;5090301;28;20934;-74
2022/10/14 09:17:11;;;;;;;10.87;7.50;;;17.00;1.00;;;;;;5098336;28;20496;-74
2022/10/14 09:20:00;;;;;;;12.50;7.33;;;17.00;1.00;;;;;;5106728;28;20486;-74
2022/10/14 09:22:26;;;;;;;9.93;7.90;;;17.10;1.00;;;;;;5109813;28;20393;-74
2022/10/14 09:24:52;;;;;;;15.80;8.00;;;17.70;1.00;;;;;;5110607;28;20385;-74
2022/10/14 09:27:23;;;;;;;15.23;7.67;;;17.40;1.00;;;;;;5109942;28;20385;-74
2022/10/14 09:30:00;;;;;;;14.07;7.60;;;17.50;1.00;;;;;;5110300;28;20198;-74
2022/10/14 09:32:37;;;;;;;9.80;7.83;;;17.60;1.00;;;;;;5110281;28;20404;-74
2022/10/14 09:35:03;;;;;;;13.00;8.27;;;17.70;1.00;;;;;;5103784;28;20394;-75
2022/10/14 09:37:31;;;;;;;13.30;8.13;;;17.90;1.00;;;;;;5093322;28;20409;-74
2022/10/14 09:40:08;;;;;;;9.83;6.93;;;18.10;1.00;;;;;;5094560;28;20947;-74
2022/10/14 09:43:07;;;;;;;10.53;7.20;;;18.20;1.00;;;;;;5093642;28;20472;-74
2022/10/14 09:45:47;;;;;;;10.83;7.33;;;18.30;1.00;;;;;;5093553;28;20417;-74
2022/10/14 09:48:36;;;;;;;16.17;8.53;;;18.30;1.00;;;;;;5094616;28;20430;-74
2022/10/14 09:51:09;;;;;;;10.80;6.80;;;18.30;1.00;;;;;;5093173;28;20449;-73
2022/10/14 09:53:47;;;;;;;9.87;6.93;;;18.40;1.00;;;;;;5093535;28;20416;-75
2022/10/14 09:56:13;;;;;;;12.43;7.07;;;18.40;1.00;;;;;;5093573;28;20401;-76
2022/10/14 09:58:49;;;;;;;10.73;7.13;;;18.60;1.00;;;;;;5093729;28;20552;-76
2022/10/14 10:01:19;;;;;;;9.53;7.27;;;18.60;1.00;;;;;;5093522;28;20433;-75
2022/10/14 10:03:47;;;;;;;12.47;7.50;;;18.60;1.00;;;;;;5093974;28;20488;-74
2022/10/14 10:06:15;;;;;;;11.40;8.00;;;18.40;1.00;;;;;;5092890;28;20406;-74
2022/10/14 10:09:00;;;;;;;12.30;6.80;;;18.50;1.00;;;;;;5093598;28;20934;-74
2022/10/14 10:11:36;;;;;;;12.33;6.87;;;18.60;1.00;;;;;;5093198;28;20862;-74
2022/10/14 10:14:23;;;;;;;15.50;7.40;;;18.60;1.00;;;;;;5093298;28;20416;-75
2022/10/14 10:16:51;;;;;;;14.43;8.00;;;18.70;1.00;;;;;;5087167;28;20776;-74
2022/10/14 10:19:30;;;;;;;15.23;8.93;;;18.70;1.00;;;;;;5092723;28;20443;-74
2022/10/14 10:22:18;;;;;;;14.10;8.90;;;18.70;1.00;;;;;;5092971;28;20439;-74
2022/10/14 10:24:48;;;;;;;12.20;7.80;;;18.60;1.00;;;;;;5093412;28;20402;-74
2022/10/14 10:27:22;;;;;;;9.57;7.50;;;18.50;1.00;;;;;;5092991;28;20877;-74
2022/10/14 10:29:48;;;;;;;14.37;8.40;;;18.60;1.00;;;;;;5093059;28;20470;-75
2022/10/14 10:32:28;;;;;;;14.60;7.73;;;18.60;1.00;;;;;;5093052;28;20437;-75
2022/10/14 10:35:31;;;;;;;9.23;7.13;;;18.60;1.00;;;;;;5092585;28;20156;-74
2022/10/14 10:38:20;;;;;;;13.10;7.47;;;18.50;1.00;;;;;;5092788;28;20402;-74
2022/10/14 10:41:20;;;;;;;10.03;7.90;;;18.60;1.00;;;;;;5093102;28;20508;-74
2022/10/14 10:44:06;;;;;;;8.77;6.73;;;18.70;1.00;;;;;;5092197;28;20401;-75
2022/10/14 10:46:50;;;;;;;15.80;8.20;;;18.50;1.00;;;;;;5100198;28;20473;-74
2022/10/14 10:49:27;;;;;;;10.43;8.07;;;18.40;1.00;;;;;;5075280;28;20418;-74
2022/10/14 10:52:17;;;;;;;10.67;7.70;;;18.30;1.00;;;;;;5072248;28;20485;-75
2022/10/14 10:55:04;;;;;;;11.47;7.87;;;18.20;1.00;;;;;;5072556;28;20881;-74
2022/10/14 10:58:07;;;;;;;17.90;7.80;;;18.20;1.00;;;;;;5087924;28;20543;-74
2022/10/14 11:00:52;;;;;;;11.37;8.20;;;18.10;1.00;;;;;;5072551;28;20469;-74
2022/10/14 11:03:27;;;;;;;17.87;9.70;;;18.10;1.00;;;;;;5070624;28;20413;-74
2022/10/14 11:06:14;;;;;;;16.83;9.73;;;18.10;1.00;;;;;;5073925;28;20911;-74
2022/10/14 11:12:11;;;;;;;18.83;9.83;;;18.20;1.00;;;;;;5072639;28;20473;-74
2022/10/14 11:15:14;;;;;;;13.90;7.50;;;18.10;1.00;;;;;;5073386;28;20607;-75
2022/10/14 11:17:53;;;;;;;10.83;6.13;;;17.90;1.00;;;;;;5099263;28;20903;-75
2022/10/14 11:20:24;;;;;;;10.80;5.50;;;17.90;1.00;;;;;;5113325;28;20424;-74
2022/10/14 11:23:13;;;;;;;7.20;5.20;;;17.70;1.00;;;;;;5112760;28;20405;-75
2022/10/14 11:25:43;;;;;;;9.37;5.30;;;17.40;1.00;;;;;;5113202;27;20818;-74
2022/10/14 11:28:13;;;;;;;11.60;5.57;;;17.20;1.00;;;;;;5112834;28;20409;-76
2022/10/14 11:31:11;;;;;;;7.80;5.10;;;17.10;1.00;;;;;;5112996;28;20448;-74
2022/10/14 11:33:43;;;;;;;8.67;5.27;;;17.10;1.00;;;;;;5113213;28;21028;-74
2022/10/14 11:36:27;;;;;;;8.57;5.30;;;17.00;1.00;;;;;;5095924;28;20441;-74
2022/10/14 11:39:18;;;;;;;10.23;5.90;;;17.10;1.00;;;;;;5092235;28;20412;-74
2022/10/14 11:42:00;;;;;;;9.53;6.30;;;17.20;1.00;;;;;;5092675;28;20406;-76
2022/10/14 11:44:39;;;;;;;8.90;5.73;;;17.20;2.50;;;;;;5093028;28;20809;-75
2022/10/14 11:47:21;;;;;;;8.43;5.90;;;17.20;1.00;;;;;;5100890;28;20940;-74
2022/10/14 11:49:54;;;;;;;8.63;6.03;;;17.20;3.30;;;;;;5110854;28;20542;-74
2022/10/14 11:52:26;;;;;;;8.13;5.17;;;17.20;4.10;;;;;;5111844;28;20795;-75
2022/10/14 11:55:04;;;;;;;9.53;4.47;;;17.30;1.10;;;;;;5112874;28;20400;-74
2022/10/14 11:57:40;;;;;;;6.33;4.40;;;17.40;1.00;;;;;;5105368;27;20398;-74
2022/10/14 12:03:23;;;;;;;6.47;4.90;;;17.40;1.20;;;;;;5092428;28;20868;-74
2022/10/14 12:06:00;;;;;;;7.13;5.03;;;17.60;1.00;;;;;;5092040;28;20409;-75
2022/10/14 12:08:39;;;;;;;7.20;5.37;;;17.80;1.00;;;;;;5091885;28;20401;-74
2022/10/14 12:11:21;;;;;;;11.40;5.60;;;17.80;1.00;;;;;;5091503;28;20536;-74
2022/10/14 12:13:51;;;;;;;7.60;5.10;;;17.90;1.00;;;;;;5091565;28;20389;-74
2022/10/14 12:16:19;;;;;;;8.20;5.60;;;17.80;1.00;;;;;;5091540;28;20410;-73
2022/10/14 12:18:49;;;;;;;9.47;5.53;;;17.80;1.00;;;;;;5091345;28;20417;-74
2022/10/14 12:21:34;;;;;;;11.87;6.00;;;17.90;1.10;;;;;;5091389;28;20425;-73
2022/10/14 12:24:20;;;;;;;10.40;5.70;;;18.90;1.00;;;;;;5091249;28;20479;-74
2022/10/14 12:26:51;;;;;;;9.57;6.17;;;18.40;1.00;;;;;;5092015;28;20406;-75
2022/10/14 12:29:27;;;;;;;7.50;5.10;;;18.50;1.00;;;;;;5091356;28;20437;-75
2022/10/14 12:32:19;;;;;;;7.90;5.23;;;18.50;1.00;;;;;;5091049;28;20892;-75
2022/10/14 12:35:25;;;;;;;7.20;5.87;;;18.40;1.00;;;;;;5091627;28;20405;-74
2022/10/14 12:37:51;;;;;;;9.40;5.17;;;18.40;1.00;;;;;;5090228;28;20429;-78
2022/10/14 12:40:25;;;;;;;7.40;5.23;;;18.30;1.00;;;;;;5090665;28;20418;-73
2022/10/14 12:43:15;;;;;;;12.13;4.97;;;18.10;1.00;;;;;;5090643;28;20233;-75
2022/10/14 12:46:12;;;;;;;6.47;4.80;;;17.90;1.00;;;;;;5088023;28;20872;-74
2022/10/14 12:48:44;;;;;;;12.50;4.83;;;17.80;1.00;;;;;;5103067;28;20409;-76
2022/10/14 12:51:20;;;;;;;5.90;5.07;;;17.90;1.00;;;;;;5073928;28;20476;-74
2022/10/14 12:54:12;;;;;;;8.20;4.80;;;17.90;1.60;;;;;;5070401;28;20408;-74
2022/10/14 12:56:44;;;;;;;6.90;5.40;;;17.80;2.00;;;;;;5079251;28;20403;-74
2022/10/14 12:59:24;;;;;;;6.43;4.80;;;17.70;8.10;;;;;;5090477;28;20502;-74
2022/10/14 13:02:03;;;;;;;7.10;5.00;;;17.60;8.10;;;;;;5090972;28;20453;-74
2022/10/14 13:04:29;;;;;;;8.20;5.17;;;17.60;10.70;;;;;;5090902;28;20817;-75
2022/10/14 13:07:29;;;;;;;6.97;5.30;;;17.60;10.20;;;;;;5090788;28;20414;-75